Leesburg, Ohio
Current Conditions -  °F | °C
As of 5:54 AM on Monday 22 Dec 2014 (Local Time) from KILN Reporting Station
Haze Haze  
Wind Chill: 22°   Ceiling: 4500
Heat Index: 29°   Visibility: 6mi
Dew Point: 25°   Wind: 7mph
Humidity: 85%   Direction: 110°ESE
Pressure: 30.03"   Gusts: NA
Location:  39.35°N, 83.55°W
Report Text: KILN 221054Z AUTO 11006KT 6SM BR OVC045 M02/M04 A3003 RMK AO2 SLP196 T10171039
Loading
Personal Weather Stations






























Interactive Weather Map New forecast layout! Learn more

10-Day Weather Forecast

Advertisements
Track Severe Weather on mobile